Time,TemperatureF,DewpointF,PressureIn,WindDirection,WindDirectionDegrees,WindSpeedMPH,WindSpeedGustMPH,Humidity,HourlyPrecipIn,Conditions,Clouds,dailyrainin,SolarRadiationWatts/m^2,SoftwareType,DateUTC
2013-05-14 00:00:00,45.3,30.0,29.87,West,278,2.0,6.3,54,0.00,,,-99.99,1.0,HOBO +U30 +Weather +,2013-05-14 04:00:00,
2013-05-14 00:15:00,45.4,30.3,29.87,NW,310,2.0,7.2,55,0.00,,,-99.99,1.0,HOBO +U30 +Weather +,2013-05-14 04:15:00,
2013-05-14 00:30:00,45.1,30.5,29.87,NW,326,1.6,5.8,56,0.00,,,-99.99,1.0,HOBO +U30 +Weather +,2013-05-14 04:30:00,
2013-05-14 00:45:00,45.1,30.6,29.87,WNW,286,1.6,5.4,56,0.00,,,-99.99,1.0,HOBO +U30 +Weather +,2013-05-14 04:45:00,
2013-05-14 01:00:00,45.1,31.0,29.87,WNW,293,1.3,5.8,57,0.00,,,-99.99,1.0,HOBO +U30 +Weather +,2013-05-14 05:00:00,
2013-05-14 01:15:00,44.9,31.0,29.87,NW,316,2.0,5.4,57,0.00,,,-99.99,1.0,HOBO +U30 +Weather +,2013-05-14 05:15:00,
2013-05-14 01:30:00,44.7,31.0,29.87,NNW,333,2.0,6.7,58,0.00,,,-99.99,1.0,HOBO +U30 +Weather +,2013-05-14 05:30:00,
2013-05-14 01:45:00,44.3,31.1,29.87,NNW,327,1.6,4.9,59,0.00,,,-99.99,1.0,HOBO +U30 +Weather +,2013-05-14 05:45:00,
2013-05-14 02:00:00,44.2,31.2,29.86,NNW,329,2.5,7.2,60,0.00,,,-99.99,1.0,HOBO +U30 +Weather +,2013-05-14 06:00:00,
2013-05-14 02:15:00,43.7,31.1,29.86,NW,326,1.3,4.9,60,0.00,,,-99.99,1.0,HOBO +U30 +Weather +,2013-05-14 06:15:00,
2013-05-14 02:30:00,43.4,31.2,29.86,NW,314,0.9,3.4,61,0.00,,,-99.99,1.0,HOBO +U30 +Weather +,2013-05-14 06:30:00,
2013-05-14 02:45:00,43.1,31.1,29.86,NNW,347,1.6,6.7,62,0.00,,,-99.99,1.0,HOBO +U30 +Weather +,2013-05-14 06:45:00,
2013-05-14 03:00:00,43.0,31.3,29.86,NNW,334,1.6,6.3,63,0.00,,,-99.99,1.0,HOBO +U30 +Weather +,2013-05-14 07:00:00,
2013-05-14 03:15:00,42.7,31.3,29.86,NNW,345,2.0,6.3,63,0.00,,,-99.99,1.0,HOBO +U30 +Weather +,2013-05-14 07:15:00,
2013-05-14 03:30:00,42.1,31.1,29.86,NNW,340,1.6,5.4,64,0.00,,,-99.99,1.0,HOBO +U30 +Weather +,2013-05-14 07:30:00,
2013-05-14 03:45:00,41.7,31.2,29.85,NNW,331,1.3,3.8,65,0.00,,,-99.99,1.0,HOBO +U30 +Weather +,2013-05-14 07:45:00,
2013-05-14 04:00:00,41.2,31.0,29.86,NNW,329,0.9,4.3,66,0.00,,,-99.99,1.0,HOBO +U30 +Weather +,2013-05-14 08:00:00,
2013-05-14 04:15:00,40.9,31.2,29.86,NNW,331,0.9,3.8,68,0.00,,,-99.99,1.0,HOBO +U30 +Weather +,2013-05-14 08:15:00,
2013-05-14 04:30:00,40.9,31.4,29.86,NNW,334,1.3,4.9,68,0.00,,,-99.99,1.0,HOBO +U30 +Weather +,2013-05-14 08:30:00,
2013-05-14 04:45:00,40.7,31.2,29.86,NNW,330,1.3,4.5,68,0.00,,,-99.99,1.0,HOBO +U30 +Weather +,2013-05-14 08:45:00,
2013-05-14 05:00:00,40.5,31.3,29.86,NNW,330,1.3,4.5,69,0.00,,,-99.99,1.0,HOBO +U30 +Weather +,2013-05-14 09:00:00,
2013-05-14 05:15:00,41.0,31.9,29.87,NNW,327,2.0,5.8,69,0.00,,,-99.99,1.0,HOBO +U30 +Weather +,2013-05-14 09:15:00,
2013-05-14 05:30:00,41.3,32.1,29.87,NNW,331,2.5,7.4,69,0.00,,,-99.99,4.0,HOBO +U30 +Weather +,2013-05-14 09:30:00,
2013-05-14 05:45:00,41.8,32.2,29.87,NNW,327,2.9,7.8,68,0.00,,,-99.99,14.0,HOBO +U30 +Weather +,2013-05-14 09:45:00,
2013-05-14 06:00:00,42.4,32.5,29.88,NNW,330,3.8,12.1,67,0.00,,,-99.99,21.0,HOBO +U30 +Weather +,2013-05-14 10:00:00,
2013-05-14 06:15:00,42.9,32.5,29.88,NNW,340,4.3,11.6,66,0.00,,,-99.99,36.0,HOBO +U30 +Weather +,2013-05-14 10:15:00,
2013-05-14 06:30:00,43.5,32.5,29.88,NNW,347,4.3,12.5,64,0.00,,,-99.99,62.0,HOBO +U30 +Weather +,2013-05-14 10:30:00,
2013-05-14 06:45:00,44.1,32.7,29.88,NNW,341,4.3,11.6,64,0.00,,,-99.99,93.0,HOBO +U30 +Weather +,2013-05-14 10:45:00,
2013-05-14 07:00:00,44.3,32.8,29.89,NNW,331,4.5,10.1,63,0.00,,,-99.99,141.0,HOBO +U30 +Weather +,2013-05-14 11:00:00,
2013-05-14 07:15:00,45.1,33.5,29.89,NNW,347,4.3,10.7,63,0.00,,,-99.99,234.0,HOBO +U30 +Weather +,2013-05-14 11:15:00,
2013-05-14 07:30:00,46.0,33.9,29.89,NNW,341,4.9,13.6,62,0.00,,,-99.99,362.0,HOBO +U30 +Weather +,2013-05-14 11:30:00,
2013-05-14 07:45:00,46.3,33.7,29.89,NNW,334,4.3,13.6,61,0.00,,,-99.99,418.0,HOBO +U30 +Weather +,2013-05-14 11:45:00,
2013-05-14 08:00:00,48.3,35.2,29.89,NNW,334,4.3,10.7,60,0.00,,,-99.99,436.0,HOBO +U30 +Weather +,2013-05-14 12:00:00,
2013-05-14 08:15:00,49.0,34.9,29.89,North,352,5.4,11.2,58,0.00,,,-99.99,477.0,HOBO +U30 +Weather +,2013-05-14 12:15:00,
2013-05-14 08:30:00,50.2,35.0,29.89,North,1,4.5,10.7,55,0.00,,,-99.99,522.0,HOBO +U30 +Weather +,2013-05-14 12:30:00,
2013-05-14 08:45:00,50.4,33.7,29.89,NNW,348,6.3,12.1,52,0.00,,,-99.99,563.0,HOBO +U30 +Weather +,2013-05-14 12:45:00,
2013-05-14 09:00:00,51.0,33.3,29.88,NNW,345,6.3,11.6,50,0.00,,,-99.99,609.0,HOBO +U30 +Weather +,2013-05-14 13:00:00,
2013-05-14 09:15:00,51.0,31.3,29.88,North,4,5.8,11.6,46,0.00,,,-99.99,642.0,HOBO +U30 +Weather +,2013-05-14 13:15:00,
2013-05-14 09:30:00,53.0,31.7,29.87,NNW,345,5.8,13.6,44,0.00,,,-99.99,711.0,HOBO +U30 +Weather +,2013-05-14 13:30:00,
2013-05-14 09:45:00,52.3,30.0,29.87,North,1,5.4,12.5,42,0.00,,,-99.99,439.0,HOBO +U30 +Weather +,2013-05-14 13:45:00,
2013-05-14 10:00:00,51.9,28.4,29.87,North,8,7.2,16.6,40,0.00,,,-99.99,542.0,HOBO +U30 +Weather +,2013-05-14 14:00:00,
2013-05-14 10:15:00,52.9,29.3,29.87,North,0,6.7,15.4,40,0.00,,,-99.99,643.0,HOBO +U30 +Weather +,2013-05-14 14:15:00,
2013-05-14 10:30:00,53.1,30.4,29.87,North,354,5.4,13.6,41,0.00,,,-99.99,926.0,HOBO +U30 +Weather +,2013-05-14 14:30:00,
2013-05-14 10:45:00,53.5,29.9,29.87,North,3,6.3,13.2,40,0.00,,,-99.99,1113.0,HOBO +U30 +Weather +,2013-05-14 14:45:00,
2013-05-14 11:00:00,53.0,29.9,29.87,NNW,340,6.7,13.6,40,0.00,,,-99.99,1001.0,HOBO +U30 +Weather +,2013-05-14 15:00:00,
2013-05-14 11:15:00,54.5,31.4,29.87,NW,313,4.5,10.3,41,0.00,,,-99.99,346.0,HOBO +U30 +Weather +,2013-05-14 15:15:00,
2013-05-14 11:30:00,52.2,29.5,29.87,North,355,4.9,11.6,41,0.00,,,-99.99,234.0,HOBO +U30 +Weather +,2013-05-14 15:30:00,
2013-05-14 11:45:00,55.2,32.2,29.87,NNW,334,4.3,10.3,41,0.00,,,-99.99,372.0,HOBO +U30 +Weather +,2013-05-14 15:45:00,
2013-05-14 12:00:00,54.6,30.7,29.87,NNW,329,5.4,12.1,39,0.00,,,-99.99,1152.0,HOBO +U30 +Weather +,2013-05-14 16:00:00,
2013-05-14 12:15:00,54.8,30.2,29.86,NNW,345,6.3,13.2,38,0.00,,,-99.99,413.0,HOBO +U30 +Weather +,2013-05-14 16:15:00,
2013-05-14 12:30:00,55.9,30.6,29.86,NNW,330,5.4,13.0,37,0.00,,,-99.99,1218.0,HOBO +U30 +Weather +,2013-05-14 16:30:00,
2013-05-14 12:45:00,54.2,28.7,29.86,NNW,341,6.3,14.5,37,0.00,,,-99.99,261.0,HOBO +U30 +Weather +,2013-05-14 16:45:00,
2013-05-14 13:00:00,57.2,31.7,29.85,WNW,298,5.8,12.1,37,0.00,,,-99.99,1047.0,HOBO +U30 +Weather +,2013-05-14 17:00:00,
2013-05-14 13:15:00,55.0,28.8,29.85,NW,316,5.8,13.6,36,0.00,,,-99.99,1164.0,HOBO +U30 +Weather +,2013-05-14 17:15:00,
2013-05-14 13:30:00,57.4,30.2,29.85,WNW,289,5.4,15.4,35,0.00,,,-99.99,253.0,HOBO +U30 +Weather +,2013-05-14 17:30:00,
2013-05-14 13:45:00,56.4,30.1,29.85,NW,319,6.3,15.9,36,0.00,,,-99.99,1199.0,HOBO +U30 +Weather +,2013-05-14 17:45:00,
2013-05-14 14:00:00,56.7,29.8,29.85,WNW,291,5.4,12.1,35,0.00,,,-99.99,293.0,HOBO +U30 +Weather +,2013-05-14 18:00:00,
2013-05-14 14:15:00,58.0,29.8,29.85,WNW,299,5.8,13.0,34,0.00,,,-99.99,416.0,HOBO +U30 +Weather +,2013-05-14 18:15:00,
2013-05-14 14:30:00,56.8,28.2,29.84,WNW,299,5.8,12.1,33,0.00,,,-99.99,212.0,HOBO +U30 +Weather +,2013-05-14 18:30:00,
2013-05-14 14:45:00,58.8,30.9,29.84,NW,324,5.4,15.0,34,0.00,,,-99.99,994.0,HOBO +U30 +Weather +,2013-05-14 18:45:00,
2013-05-14 15:00:00,55.9,27.5,29.84,NW,314,6.3,12.1,33,0.00,,,-99.99,307.0,HOBO +U30 +Weather +,2013-05-14 19:00:00,
2013-05-14 15:15:00,56.4,27.5,29.83,NW,319,6.3,14.1,32,0.00,,,-99.99,223.0,HOBO +U30 +Weather +,2013-05-14 19:15:00,
2013-05-14 15:30:00,56.6,28.9,29.83,NW,314,4.5,12.1,34,0.00,,,-99.99,591.0,HOBO +U30 +Weather +,2013-05-14 19:30:00,
2013-05-14 15:45:00,56.7,28.6,29.83,NW,310,6.7,14.5,33,0.00,,,-99.99,233.0,HOBO +U30 +Weather +,2013-05-14 19:45:00,
2013-05-14 16:00:00,56.9,28.9,29.83,NW,324,5.8,15.0,34,0.00,,,-99.99,424.0,HOBO +U30 +Weather +,2013-05-14 20:00:00,
2013-05-14 16:15:00,56.9,27.7,29.83,NW,321,5.4,15.0,32,0.00,,,-99.99,198.0,HOBO +U30 +Weather +,2013-05-14 20:15:00,
2013-05-14 16:30:00,56.2,28.1,29.83,NW,324,4.9,11.6,33,0.00,,,-99.99,183.0,HOBO +U30 +Weather +,2013-05-14 20:30:00,
2013-05-14 16:45:00,56.5,29.1,29.83,WNW,298,4.5,13.2,34,0.00,,,-99.99,129.0,HOBO +U30 +Weather +,2013-05-14 20:45:00,
2013-05-14 17:00:00,55.9,28.2,29.83,NW,310,5.8,14.5,34,0.00,,,-99.99,178.0,HOBO +U30 +Weather +,2013-05-14 21:00:00,
2013-05-14 17:15:00,58.3,29.8,29.83,NNW,330,4.5,12.1,33,0.00,,,-99.99,584.0,HOBO +U30 +Weather +,2013-05-14 21:15:00,
2013-05-14 17:30:00,56.1,27.8,29.82,NW,307,4.5,13.2,33,0.00,,,-99.99,122.0,HOBO +U30 +Weather +,2013-05-14 21:30:00,
2013-05-14 17:45:00,55.8,28.3,29.83,NW,326,4.5,10.3,34,0.00,,,-99.99,141.0,HOBO +U30 +Weather +,2013-05-14 21:45:00,
2013-05-14 18:00:00,56.0,28.3,29.82,NW,317,4.3,10.7,34,0.00,,,-99.99,106.0,HOBO +U30 +Weather +,2013-05-14 22:00:00,
2013-05-14 18:15:00,55.8,28.4,29.82,WNW,302,4.3,11.6,34,0.00,,,-99.99,113.0,HOBO +U30 +Weather +,2013-05-14 22:15:00,
2013-05-14 18:30:00,55.5,27.7,29.83,NW,319,4.3,9.6,34,0.00,,,-99.99,63.0,HOBO +U30 +Weather +,2013-05-14 22:30:00,
2013-05-14 18:45:00,55.3,27.7,29.83,NW,317,3.8,7.8,34,0.00,,,-99.99,58.0,HOBO +U30 +Weather +,2013-05-14 22:45:00,
2013-05-14 19:00:00,55.3,27.9,29.83,NW,310,3.8,10.3,34,0.00,,,-99.99,67.0,HOBO +U30 +Weather +,2013-05-14 23:00:00,
2013-05-14 19:15:00,54.6,27.0,29.84,NW,313,3.4,9.2,34,0.00,,,-99.99,33.0,HOBO +U30 +Weather +,2013-05-14 23:15:00,
2013-05-14 19:30:00,54.3,27.5,29.84,WNW,303,2.9,7.8,35,0.00,,,-99.99,18.0,HOBO +U30 +Weather +,2013-05-14 23:30:00,
2013-05-14 19:45:00,54.0,28.2,29.85,WNW,296,2.9,6.7,36,0.00,,,-99.99,6.0,HOBO +U30 +Weather +,2013-05-14 23:45:00,
2013-05-14 20:00:00,53.8,28.2,29.85,NW,309,3.4,6.7,37,0.00,,,-99.99,2.0,HOBO +U30 +Weather +,2013-05-15 00:00:00,
2013-05-14 20:15:00,53.8,28.3,29.85,NW,307,3.4,8.7,37,0.00,,,-99.99,1.0,HOBO +U30 +Weather +,2013-05-15 00:15:00,
2013-05-14 20:30:00,53.2,28.1,29.86,WNW,295,2.0,5.4,37,0.00,,,-99.99,1.0,HOBO +U30 +Weather +,2013-05-15 00:30:00,
2013-05-14 20:45:00,52.8,28.9,29.87,WNW,288,2.5,6.3,39,0.00,,,-99.99,1.0,HOBO +U30 +Weather +,2013-05-15 00:45:00,
2013-05-14 21:00:00,52.6,29.6,29.88,WNW,289,2.9,10.3,41,0.00,,,-99.99,1.0,HOBO +U30 +Weather +,2013-05-15 01:00:00,
2013-05-14 21:15:00,52.0,29.2,29.88,WNW,300,2.9,7.4,41,0.00,,,-99.99,1.0,HOBO +U30 +Weather +,2013-05-15 01:15:00,
2013-05-14 21:30:00,50.8,28.9,29.89,WNW,292,2.5,5.8,42,0.00,,,-99.99,1.0,HOBO +U30 +Weather +,2013-05-15 01:30:00,
2013-05-14 21:45:00,49.9,29.1,29.89,West,268,2.0,4.9,44,0.00,,,-99.99,1.0,HOBO +U30 +Weather +,2013-05-15 01:45:00,
2013-05-14 22:00:00,48.9,29.4,29.90,West,270,1.6,4.5,46,0.00,,,-99.99,1.0,HOBO +U30 +Weather +,2013-05-15 02:00:00,
2013-05-14 22:15:00,46.7,29.3,29.90,West,270,0.9,2.5,50,0.00,,,-99.99,1.0,HOBO +U30 +Weather +,2013-05-15 02:15:00,
2013-05-14 22:30:00,45.9,31.6,29.90,West,270,0.4,1.3,57,0.00,,,-99.99,1.0,HOBO +U30 +Weather +,2013-05-15 02:30:00,
2013-05-14 22:45:00,43.7,31.0,29.89,West,270,0.0,0.9,60,0.00,,,-99.99,1.0,HOBO +U30 +Weather +,2013-05-15 02:45:00,
2013-05-14 23:00:00,43.4,32.2,29.89,West,270,0.4,1.6,64,0.00,,,-99.99,1.0,HOBO +U30 +Weather +,2013-05-15 03:00:00,
2013-05-14 23:15:00,43.2,32.6,29.90,West,270,0.4,1.3,65,0.00,,,-99.99,1.0,HOBO +U30 +Weather +,2013-05-15 03:15:00,
2013-05-14 23:30:00,42.3,32.8,29.89,West,270,0.0,1.3,68,0.00,,,-99.99,1.0,HOBO +U30 +Weather +,2013-05-15 03:30:00,
2013-05-14 23:45:00,41.6,32.5,29.90,West,270,0.0,1.6,69,0.00,,,-99.99,1.0,HOBO +U30 +Weather +,2013-05-15 03:45:00,